KSEG/SEG METAR and TAF weather

Enter ICAO airport designator
Station Type Date Time Source
KSEG METAR 2022/05/24 11:53 UTC NOAA

KSEG 241153Z AUTO 33003KT 10SM OVC055 14/11 A3025 RMK AO2 SLP242 T01390111 10144 20122 51014


Station Type Date Time Source
KSEG Decoded METAR 2022/05/24 11:53 UTC NOAA

SELINSGROVE PENN VALLEY AIRPORT , PA, United States (KSEG) 40-49N 076-52W 134M
May 24, 2022 - 07:53 AM EDT / 2022.05.24 1153 UTC
Wind: from the NNW (330 degrees) at 3 MPH (3 KT):0
Visibility: 10 mile(s):0
Sky conditions: overcast
Temperature: 57.0 F (13.9 C)
Dew Point: 52.0 F (11.1 C)
Relative Humidity: 83%
Pressure (altimeter): 30.25 in. Hg (1024 hPa)
Pressure tendency: 0.04 inches (1.4 hPa) higher than three hours ago
ob: KSEG 241153Z AUTO 33003KT 10SM OVC055 14/11 A3025 RMK AO2 SLP242 T01390111 10144 20122 51014
cycle: 12

Station Type Date Time Source
KSEG TAF UTC NOAA

Error!

Example: see airport list